Skytop, Pennsylvania
Current Conditions -  °F | °C
As of 2:53 AM on Tuesday 27 Jan 2015 (Local Time) from KMPO Reporting Station
Overcast Overcast  
Wind Chill:   Ceiling: 4400
Heat Index: 19°   Visibility: 10mi
Dew Point: 13°   Wind: 13mph
Humidity: 77%   Direction: 330°NNW
Pressure: 29.62"   Gusts: 18mph
Location:  41.23°N, 75.24°W
Report Text: KMPO 270753Z AUTO 33011G16KT 10SM BKN044 OVC055 M07/M11 A2962 RMK AO2 SLP062 T10721106
Loading
Personal Weather Stations






























Interactive Weather Map New forecast layout! Learn more

10-Day Weather Forecast

Advertisements
Track Severe Weather on mobile